Date,TemperatureHighF,TemperatureAvgF,TemperatureLowF,DewpointHighF,DewpointAvgF,DewpointLowF,HumidityHigh,HumidityAvg,HumidityLow,PressureMaxIn,PressureMinIn,WindSpeedMaxMPH,WindSpeedAvgMPH,GustSpeedMaxMPH,PrecipitationSumIn
2013-1-1,41.8,37.6,34.5,42.0,36.5,30.5,100,96,81,30.11,29.93,8,0,13,0.59
2013-1-2,41.6,37.2,34.8,41.6,34.5,31.3,100,90,81,30.16,29.96,11,0,13,0.02
2013-1-3,41.7,33.5,24.2,33.0,28.9,22.5,95,84,48,30.33,30.13,6,0,8,0.00
2013-1-4,37.5,26.6,18.7,26.3,21.9,17.0,95,84,55,30.42,30.33,8,0,13,0.00
2013-1-5,42.7,30.9,18.1,34.6,24.8,16.4,98,80,41,30.45,30.24,5,0,10,0.04
2013-1-6,42.0,37.6,33.2,37.4,34.5,28.3,99,89,71,30.27,30.10,10,1,13,0.01
2013-1-7,47.4,33.3,24.0,32.3,27.5,22.5,95,81,48,30.44,30.27,7,1,11,0.00
2013-1-8,37.4,26.8,20.9,32.4,24.9,19.7,96,93,82,30.43,30.30,5,0,7,0.00
2013-1-9,47.5,40.7,29.6,46.4,38.3,28.1,99,91,74,30.46,30.30,3,0,6,0.03
2013-1-10,61.6,50.3,42.3,51.5,46.7,41.8,100,88,67,30.45,30.19,6,1,11,0.00
2013-1-11,61.0,52.7,44.4,59.8,51.6,44.1,100,96,77,30.19,30.00,5,0,8,0.09
2013-1-12,67.9,56.8,49.1,64.5,56.0,49.1,100,97,84,30.11,29.96,5,0,5,0.02
2013-1-13,65.3,54.3,43.4,59.9,52.9,43.4,100,96,76,30.04,29.91,3,0,6,0.39
2013-1-14,58.5,47.4,38.6,58.5,46.8,37.8,100,98,95,30.27,29.95,12,1,16,1.92
2013-1-15,46.5,42.3,38.4,46.5,42.1,37.6,100,99,96,30.18,29.92,5,1,8,2.33
2013-1-16,50.3,46.6,43.3,49.9,46.3,42.8,100,99,95,30.03,29.86,10,0,13,0.98
2013-1-17,44.1,37.3,27.4,44.1,35.6,27.2,100,94,68,30.32,29.93,7,1,8,0.89
2013-1-18,38.0,27.3,18.9,33.0,25.6,17.7,100,94,72,30.55,30.32,5,0,7,0.45
2013-1-19,43.6,29.6,19.4,34.0,26.8,18.2,97,90,63,30.45,30.17,5,0,7,0.30
2013-1-20,51.3,34.1,23.8,37.3,29.5,23.1,98,85,51,30.19,30.08,7,1,12,0.07
2013-1-21,44.3,31.4,22.4,31.9,20.7,6.9,96,69,31,30.17,30.04,13,1,22,0.00
2013-1-22,29.0,24.2,18.9,7.9,1.6,-3.6,55,38,25,30.33,30.15,10,1,16,0.00
2013-1-23,38.2,28.2,23.5,22.7,11.8,-1.6,88,52,32,30.37,30.09,11,1,13,0.01
2013-1-24,37.5,28.8,20.0,31.2,11.9,-1.3,88,52,26,30.46,30.05,14,2,17,0.00
2013-1-25,32.1,26.9,21.5,31.6,20.4,3.9,99,78,46,30.39,30.09,7,0,12,0.24
2013-1-26,37.3,30.9,24.1,32.3,28.9,23.1,99,92,75,30.39,30.16,8,0,11,0.12
2013-1-27,44.7,33.0,20.8,37.0,28.6,19.6,98,85,61,30.44,30.31,6,0,8,0.04
2013-1-28,58.5,45.3,34.9,46.8,41.3,34.4,99,87,60,30.35,30.18,8,0,11,0.12
2013-1-29,66.1,48.6,40.2,55.7,47.2,40.2,100,95,62,30.19,29.85,4,0,5,0.01
2013-1-30,66.6,56.5,42.1,59.4,53.0,36.7,100,89,69,29.84,29.42,16,-33,27,1.97
2013-1-31,42.1,34.8,30.2,36.7,25.0,20.0,87,68,48,29.99,29.54,16,2,27,0.02
2013-2-1,38.0,23.5,17.2,31.0,14.0,6.4,90,68,46,30.41,29.91,17,2,24,0.00
2013-2-2,29.6,23.1,15.4,28.9,20.0,12.7,97,88,64,30.39,30.05,6,-143,18,0.00
2013-2-3,36.4,32.6,29.6,33.0,28.7,20.8,98,86,67,30.14,29.94,14,-312,19,0.21
2013-2-4,40.3,30.2,21.0,30.4,24.5,19.0,94,81,53,30.14,29.94,6,-128,6,0.03
2013-2-5,51.7,38.7,30.8,39.5,33.9,30.0,97,84,59,29.98,29.90,8,-49,11,0.00
2013-2-6,55.1,38.5,27.3,38.1,30.6,26.2,98,77,33,30.20,29.98,8,1,11,0.00
2013-2-7,54.6,42.7,31.9,41.9,34.2,28.9,91,74,46,30.17,29.91,10,1,11,0.00
2013-2-8,53.0,41.9,35.8,47.3,36.2,27.2,98,82,52,30.24,29.86,19,-41,21,0.03
2013-2-9,49.4,34.5,23.0,29.5,23.8,16.4,93,69,27,30.36,30.21,6,-299,10,0.00
2013-2-10,59.7,43.6,29.8,45.2,29.9,16.5,96,66,19,30.27,29.95,13,-83,20,0.11
2013-2-11,55.5,47.6,38.1,52.2,44.3,33.1,100,89,67,30.08,29.92,8,-72,13,0.10
2013-2-12,52.4,40.8,29.0,36.1,30.2,24.2,93,69,34,30.17,29.86,6,0,10,0.00
2013-2-13,44.9,41.1,36.2,43.8,37.4,32.1,97,87,76,29.94,29.61,9,1,22,0.23
2013-2-14,48.7,38.3,29.2,34.2,30.9,26.9,94,76,53,30.05,29.94,10,1,16,0.00
2013-2-15,53.6,36.7,25.6,39.4,32.4,24.6,98,86,52,30.09,29.95,18,1,18,0.03
2013-2-16,35.0,29.5,21.6,32.3,20.8,10.0,96,72,39,30.06,29.95,21,2,21,0.00
2013-2-17,35.5,26.7,20.0,16.7,11.2,6.4,83,53,31,30.27,30.05,17,2,24,0.00
2013-2-18,54.9,35.8,17.5,32.3,21.9,14.3,89,61,35,30.34,29.95,14,1,22,0.00
2013-2-19,50.0,42.9,32.9,41.6,32.4,17.1,97,71,35,30.10,29.86,14,3,26,0.32
2013-2-20,39.1,30.8,21.7,19.6,15.3,7.5,85,56,27,30.22,30.10,8,1,14,0.00
2013-2-21,48.4,32.7,18.9,37.3,20.6,13.3,97,67,27,30.27,30.03,9,1,13,0.24
2013-2-22,55.8,46.4,38.1,45.3,42.1,37.3,100,86,65,30.10,29.95,8,1,10,0.19
2013-2-23,56.2,46.9,40.7,48.2,44.4,40.3,100,92,69,29.97,29.79,6,0,8,0.10
2013-2-24,52.4,39.2,28.2,41.0,28.9,21.2,99,72,31,30.07,29.84,7,1,13,0.00
2013-2-25,55.1,39.8,27.0,35.7,28.4,24.0,90,66,38,30.07,29.85,10,2,14,0.00
2013-2-26,56.4,46.7,39.0,46.8,38.8,31.6,95,74,60,29.86,29.38,18,4,22,0.39
2013-2-27,43.7,40.0,37.5,35.9,33.6,30.6,87,78,67,29.79,29.60,12,2,19,0.02
2013-2-28,37.7,35.2,32.6,30.3,27.4,24.1,89,73,61,29.95,29.74,8,1,18,0.04
2013-3-1,40.1,35.8,33.0,34.6,30.8,28.7,91,82,68,29.94,29.88,6,0,10,0.01
2013-3-2,37.3,32.7,28.5,30.9,26.2,19.1,92,77,62,30.02,29.88,10,2,17,0.00
2013-3-3,31.7,28.3,24.9,22.4,19.1,16.0,89,69,53,30.09,30.00,10,1,17,0.01
2013-3-4,47.1,32.1,17.9,30.5,20.6,15.5,92,66,32,30.20,29.99,7,1,14,0.00
2013-3-5,46.0,39.1,31.3,45.9,36.5,27.6,100,91,65,30.01,29.57,13,1,24,1.85
2013-3-6,33.2,30.4,28.0,30.0,26.3,22.0,94,84,71,30.24,29.75,10,1,22,0.06
2013-3-7,35.3,32.6,30.2,28.6,26.8,24.7,88,79,70,30.35,30.21,8,0,10,0.02
2013-3-8,48.1,34.4,22.7,31.0,25.8,21.1,95,74,39,30.40,30.29,9,1,13,0.00
2013-3-9,62.6,41.6,24.3,38.5,30.1,22.6,95,70,27,30.34,30.14,11,0,13,0.00
2013-3-10,71.3,53.3,39.1,41.6,36.4,32.0,86,58,26,30.14,29.95,6,1,11,0.00
2013-3-11,61.8,53.4,41.8,51.9,46.0,36.7,100,77,61,29.99,29.70,14,3,30,0.55
2013-3-12,50.3,41.8,32.4,50.3,36.3,30.6,100,82,53,30.05,29.75,7,1,14,0.22
2013-3-13,40.1,34.1,27.1,32.8,24.4,15.6,97,71,38,30.26,30.02,14,2,25,0.01
2013-3-14,44.4,33.0,21.4,25.8,19.3,14.9,85,59,35,30.38,30.21,17,2,18,0.00
2013-3-15,61.5,46.6,25.2,42.5,34.0,22.2,91,64,43,30.22,29.85,10,1,17,0.00
2013-3-16,71.8,57.7,41.6,52.7,47.0,41.1,100,71,44,29.85,29.67,17,2,26,0.03
2013-3-17,62.7,54.9,49.3,52.9,49.9,45.4,100,84,65,29.93,29.80,12,2,16,0.08
2013-3-18,58.1,49.2,41.8,51.9,46.3,39.1,100,90,69,29.88,29.74,7,1,13,1.02
2013-3-19,54.5,45.2,33.8,49.4,31.0,9.9,100,64,19,30.09,29.76,15,2,25,0.05
2013-3-20,51.4,39.0,25.8,31.4,20.5,12.1,87,52,22,30.12,29.83,18,2,26,0.00
2013-3-21,36.0,28.3,22.2,17.9,11.8,6.9,78,51,33,30.02,29.88,14,2,20,0.00
2013-3-22,43.1,31.0,16.0,28.0,17.7,12.8,90,61,32,30.09,30.00,9,1,13,0.00
2013-3-23,52.6,43.2,37.3,39.1,31.8,24.6,83,65,52,30.01,29.76,7,1,12,0.00
2013-3-24,52.8,46.2,42.7,47.4,42.7,35.8,99,88,63,29.78,29.32,10,2,16,1.17
2013-3-25,42.4,34.3,30.8,40.5,29.5,25.6,93,83,73,29.95,29.48,18,3,25,0.08
2013-3-26,37.3,33.2,30.2,30.4,28.1,26.8,91,82,67,30.24,29.95,15,1,19,0.02
2013-3-27,41.1,33.8,26.1,29.3,25.4,21.5,90,72,49,30.32,30.23,7,1,14,0.00
2013-3-28,50.8,35.4,21.6,29.8,24.8,19.9,95,70,34,30.34,30.23,11,1,14,0.00
2013-3-29,50.0,37.0,23.7,38.8,30.4,21.9,97,80,39,30.34,30.22,10,1,19,0.00
2013-3-30,58.7,45.9,37.3,44.7,40.2,36.1,98,82,54,30.22,29.97,9,1,14,0.01
2013-3-31,59.3,50.6,45.0,54.6,49.3,42.9,100,96,77,29.97,29.79,10,1,12,0.61
2013-4-1,59.1,47.3,35.7,52.1,40.2,32.8,100,80,43,30.02,29.84,14,1,19,0.01
2013-4-2,52.3,40.7,28.0,34.7,24.3,13.9,92,58,25,30.20,30.01,11,1,14,0.00
2013-4-3,55.1,41.3,25.6,28.2,22.7,15.1,88,52,25,30.30,30.17,10,2,13,0.00
2013-4-4,44.9,40.0,37.8,38.4,32.6,17.5,97,79,34,30.20,29.96,10,3,13,0.85
2013-4-5,59.7,45.6,38.0,45.3,40.0,36.8,100,83,45,30.06,29.93,10,1,15,0.01
2013-4-6,68.6,50.3,31.6,46.0,37.3,30.9,99,68,26,30.18,30.01,6,1,15,0.00
2013-4-7,70.4,55.6,40.3,47.6,41.9,34.7,89,63,35,30.10,29.99,12,2,21,0.00
2013-4-8,75.5,58.3,43.4,55.1,47.9,41.8,96,72,43,30.07,29.94,10,1,18,0.00
2013-4-9,79.8,61.2,45.5,59.1,52.2,44.7,98,76,42,30.13,29.96,11,1,15,0.00
2013-4-10,81.7,64.7,50.5,61.5,55.5,49.4,99,76,42,30.04,29.81,12,1,14,0.01
2013-4-11,81.0,67.5,53.1,62.0,54.2,49.5,96,67,34,29.85,29.57,13,2,20,0.40
2013-4-12,62.1,56.8,44.6,58.9,49.8,39.5,98,79,47,29.89,29.49,12,1,19,0.46
2013-4-13,67.2,52.3,37.1,45.4,37.9,30.3,97,63,27,30.00,29.89,14,1,18,0.00
2013-4-14,73.9,56.0,37.2,50.2,39.9,34.8,94,61,27,30.04,29.89,13,2,20,0.04
2013-4-15,75.1,60.8,51.9,56.3,52.7,49.6,96,77,47,30.06,29.88,6,1,9,0.01
2013-4-16,79.7,63.8,47.5,60.3,54.3,45.9,98,74,45,30.18,30.05,11,1,14,0.00
2013-4-17,64.9,60.5,56.7,61.4,58.7,55.3,99,94,85,30.26,30.02,6,0,11,1.42
2013-4-18,78.4,66.1,52.2,63.2,55.6,51.7,100,73,42,30.02,29.75,18,3,30,0.00
2013-4-19,69.5,59.0,44.7,61.6,51.6,34.1,96,77,65,30.00,29.59,19,2,21,0.84
2013-4-20,58.2,45.5,32.0,36.9,31.7,23.3,94,62,27,30.28,30.00,11,1,18,0.00
2013-4-21,62.8,48.4,33.5,41.4,34.0,30.4,92,62,30,30.39,30.24,8,1,13,0.00
2013-4-22,66.9,52.4,40.9,42.7,38.8,33.7,86,63,30,30.33,30.10,11,2,13,0.00
2013-4-23,69.9,54.9,39.4,50.8,40.9,33.2,87,62,34,30.20,29.97,7,0,10,0.00
2013-4-24,70.6,54.7,44.1,59.3,48.8,41.9,97,82,55,30.16,29.91,16,1,25,0.08
2013-4-25,61.1,48.1,36.2,41.9,37.6,33.4,92,70,39,30.33,30.16,10,1,13,0.00
2013-4-26,66.4,50.9,33.0,47.1,37.2,27.7,96,65,25,30.41,30.25,7,0,11,0.00
2013-4-27,56.2,53.8,50.6,55.3,50.7,45.6,100,89,76,30.29,30.10,4,0,7,0.16
2013-4-28,57.9,53.7,50.6,56.2,53.3,50.6,100,98,91,30.11,29.90,5,0,11,0.87
2013-4-29,66.9,55.2,48.9,58.0,53.8,48.9,100,96,68,29.99,29.90,7,0,10,0.01
2013-4-30,76.9,61.7,46.3,61.2,54.6,46.3,100,81,45,30.04,29.91,6,0,8,0.00
2013-5-1,73.4,62.8,51.1,57.9,53.4,50.1,100,74,48,30.17,30.04,12,2,17,0.00
2013-5-2,73.9,63.4,52.6,57.2,53.1,49.9,95,70,50,30.17,30.08,10,2,14,0.00
2013-5-3,69.6,60.8,51.8,54.3,50.1,44.7,92,69,46,30.12,29.97,13,2,20,0.00
2013-5-4,65.9,58.4,52.0,51.6,44.9,33.8,94,61,49,29.98,29.87,14,5,20,0.10
2013-5-5,57.5,52.5,49.0,54.2,49.6,45.9,98,90,77,29.92,29.76,14,2,20,0.54
2013-5-6,67.9,57.2,49.1,56.8,52.1,47.7,100,85,50,29.86,29.70,7,1,16,0.80
2013-5-7,62.1,54.4,44.9,55.5,50.9,44.9,100,89,68,29.90,29.82,6,0,8,0.03
2013-5-8,67.1,58.9,53.6,60.6,56.0,53.6,100,91,66,30.00,29.86,11,0,15,0.06
2013-5-9,75.1,59.2,49.4,63.0,55.8,49.4,100,90,52,30.07,29.97,8,0,12,0.00
2013-5-10,74.2,64.8,51.5,62.8,59.2,51.5,100,83,63,29.99,29.87,7,0,14,0.00
2013-5-11,71.3,62.3,52.8,62.7,58.4,50.5,100,88,68,29.94,29.79,9,1,14,0.06
2013-5-12,60.0,52.7,42.7,51.4,41.0,32.1,97,68,36,30.12,29.92,13,1,18,0.01
2013-5-13,61.9,49.0,34.7,40.5,34.6,27.6,96,63,28,30.22,30.11,12,1,18,0.00
2013-5-14,73.0,54.9,35.7,55.5,44.7,34.7,97,72,41,30.25,30.00,11,1,18,0.00
2013-5-15,80.9,65.8,53.1,63.2,57.1,52.6,98,76,46,30.10,29.92,14,1,20,0.00
2013-5-16,76.2,64.5,52.3,62.5,57.8,51.8,100,81,55,30.02,29.94,8,1,13,0.09
2013-5-17,78.9,66.0,54.2,65.3,59.7,54.2,100,83,53,30.08,29.97,3,0,8,0.00
2013-5-18,72.0,64.0,58.7,67.6,62.8,58.0,100,96,79,30.06,29.98,5,0,7,0.64
2013-5-19,76.5,67.4,61.6,70.4,65.8,61.6,100,95,74,30.04,29.94,6,0,8,0.17
2013-5-20,78.7,67.9,60.2,69.7,64.8,60.2,100,91,66,30.10,29.95,5,0,9,0.04
2013-5-21,83.5,69.2,59.9,71.6,65.0,59.9,100,88,59,30.03,29.86,8,1,28,0.84
2013-5-22,83.3,67.0,57.8,69.9,63.2,57.8,100,89,56,29.94,29.79,17,1,30,0.25
2013-5-23,77.8,66.5,60.7,67.0,61.8,55.7,100,86,60,29.95,29.82,11,1,16,0.11
2013-5-24,65.1,57.6,45.9,56.3,47.4,36.5,99,71,36,30.28,29.94,13,2,16,0.02
2013-5-25,69.4,55.2,39.0,51.3,43.8,31.1,100,70,25,30.37,30.17,7,0,13,0.00
2013-5-26,73.2,61.7,52.7,55.9,49.6,44.2,95,67,43,30.28,30.16,6,1,12,0.00
2013-5-27,80.2,65.1,49.4,63.4,56.5,49.1,99,77,46,30.21,30.04,8,0,14,0.00
2013-5-28,82.5,69.0,55.5,65.3,61.2,55.2,100,79,50,30.15,30.03,10,0,16,0.00
2013-5-29,84.0,69.9,55.8,67.4,61.8,55.2,99,78,46,30.18,30.05,5,0,11,0.00
2013-5-30,85.6,71.2,57.0,69.6,62.0,56.4,99,75,41,30.20,30.04,5,0,10,0.00
2013-5-31,85.4,71.8,58.7,69.0,63.3,57.6,97,77,45,30.14,30.00,8,0,12,0.00
2013-6-1,86.2,71.3,60.2,69.5,63.8,59.3,98,79,46,30.04,29.91,9,0,13,0.00
2013-6-2,71.5,67.7,65.5,68.9,66.5,64.3,100,96,79,29.95,29.85,3,0,10,0.67
2013-6-3,77.7,69.2,61.6,67.2,63.7,58.3,100,84,55,29.97,29.85,2,0,0,0.01
2013-6-4,80.1,67.8,55.2,65.7,60.3,55.2,100,80,49,30.03,29.95,3,0,0,0.00
2013-6-5,84.6,70.0,59.0,70.5,64.4,58.7,100,84,55,30.03,29.85,2,0,0,0.34
2013-6-6,78.7,70.1,63.2,69.7,66.3,63.2,100,89,65,29.90,29.71,3,0,0,0.23
2013-6-7,78.4,73.0,65.0,68.9,66.3,63.2,97,80,61,29.82,29.66,4,1,0,0.17
2013-6-8,77.9,68.0,60.1,67.5,63.8,60.1,100,88,61,30.05,29.82,3,0,0,0.23
2013-6-9,83.2,68.9,59.8,73.0,64.8,59.8,100,89,60,30.10,29.95,2,0,0,1.33
2013-6-10,77.8,69.9,65.7,70.3,66.7,64.4,100,91,65,29.95,29.83,4,1,0,0.62
2013-6-11,79.4,69.2,59.2,68.8,64.4,59.2,100,86,57,30.00,29.90,3,0,0,0.01
2013-6-12,87.7,75.2,62.5,76.1,70.0,62.5,100,85,68,30.00,29.84,3,0,0,0.00
2013-6-13,81.6,72.3,64.1,74.2,69.8,62.0,100,92,75,29.86,29.68,4,0,0,0.26
2013-6-14,76.4,65.7,54.9,63.1,58.7,54.9,100,81,49,30.04,29.85,3,0,0,0.00
2013-6-15,80.0,72.7,62.7,66.2,63.2,60.3,97,74,53,30.08,30.00,3,0,7,0.00
2013-6-16,82.3,70.3,59.9,70.8,65.3,59.9,100,86,57,30.09,29.96,8,0,13,0.00
2013-6-17,80.7,73.6,68.1,72.3,70.0,67.5,100,89,71,30.00,29.88,8,0,11,0.39
2013-6-18,71.0,67.6,61.9,69.9,66.7,61.9,100,97,80,29.95,29.82,11,0,11,2.80
2013-6-19,80.2,67.9,59.3,69.2,64.3,59.0,100,90,58,30.07,29.93,8,0,8,0.01
2013-6-20,83.7,70.9,60.4,70.2,65.3,60.2,100,84,51,30.17,30.05,8,0,11,0.00
2013-6-21,84.0,72.1,62.8,70.1,66.2,62.8,100,83,54,30.21,30.10,7,0,7,0.05
2013-6-22,83.1,71.7,60.7,68.0,64.3,60.2,100,80,50,30.21,30.06,9,0,9,0.00
2013-6-23,83.1,72.9,59.9,70.1,66.2,59.9,100,81,58,30.19,30.11,0,0,0,0.00
2013-6-24,84.2,72.9,63.9,73.4,68.6,63.7,100,88,61,30.18,30.02,8,0,11,0.00
2013-6-25,81.5,71.9,65.8,74.2,70.0,65.8,100,94,74,30.11,29.98,15,0,15,0.38
2013-6-26,84.2,72.6,65.7,74.9,69.8,65.5,100,92,74,30.00,29.85,10,0,10,0.00
2013-6-27,82.3,70.9,65.5,76.1,69.4,64.9,100,95,74,29.89,29.72,20,0,20,1.40
2013-6-28,81.9,72.6,66.0,75.6,70.3,66.0,100,93,74,29.78,29.60,13,0,14,0.00
2013-6-29,82.1,71.8,64.2,69.9,66.5,62.3,100,85,54,29.66,29.59,12,1,13,0.02
2013-6-30,84.4,71.7,60.9,69.0,64.3,59.5,100,80,48,29.76,29.65,17,0,17,0.38
2013-7-1,82.7,70.1,64.0,70.0,65.3,62.4,100,86,54,29.88,29.73,14,0,14,0.16
2013-7-2,84.7,70.0,61.4,70.2,65.7,60.8,100,88,54,30.03,29.86,13,0,16,0.39
2013-7-3,75.9,68.1,63.3,70.1,66.2,62.6,99,94,77,30.16,30.01,10,0,11,0.46
2013-7-4,79.6,68.5,62.8,72.2,66.3,62.0,100,93,73,30.18,30.07,12,0,12,0.35
2013-7-5,80.4,70.9,65.3,72.4,68.1,65.0,100,92,66,30.15,30.08,11,0,11,0.10
2013-7-6,85.2,72.4,66.6,73.3,68.4,64.5,100,88,57,30.13,30.00,11,0,17,0.21
2013-7-7,70.7,67.6,64.3,69.5,66.8,62.8,100,98,91,30.14,30.04,10,0,10,0.71
2013-7-8,83.9,70.5,62.7,70.9,66.5,61.6,100,88,54,30.19,30.07,8,0,8,0.00
2013-7-9,86.6,74.0,62.3,73.5,67.9,61.4,100,83,58,30.14,30.01,10,0,10,0.00
2013-7-10,84.1,72.8,67.8,75.3,70.1,66.9,99,92,66,30.03,29.89,6,0,14,0.59
2013-7-11,83.1,72.2,67.3,71.8,68.9,65.0,100,90,64,29.94,29.83,4,0,8,0.01
2013-7-12,82.0,70.4,61.9,68.5,64.0,59.9,100,83,49,29.95,29.86,1,0,1,0.00
2013-7-13,82.7,71.3,62.7,67.4,64.1,60.6,95,79,55,30.05,29.93,13,1,16,0.00
2013-7-14,82.7,74.3,66.6,72.0,67.4,63.9,99,80,59,30.20,30.03,21,1,21,0.21
2013-7-15,85.9,73.8,63.8,73.1,67.6,62.6,99,83,56,30.28,30.18,0,0,0,0.01
2013-7-16,89.3,77.1,64.3,74.4,70.6,64.0,100,82,51,30.30,30.19,5,0,5,0.00
2013-7-17,88.0,75.0,66.9,79.6,71.6,66.9,100,91,64,30.26,30.14,18,0,18,0.66
2013-7-18,87.2,74.1,67.2,77.5,71.1,67.0,100,92,61,30.18,30.00,9,0,11,0.03
2013-7-19,86.1,75.2,66.2,77.0,71.6,66.0,100,90,69,30.08,29.92,10,0,10,0.00
2013-7-20,83.8,73.9,67.7,77.8,71.6,67.7,100,93,71,29.99,29.87,12,0,18,0.22
2013-7-21,79.7,71.6,68.6,74.5,70.8,68.6,100,98,82,29.98,29.90,12,0,12,0.52
2013-7-22,80.9,72.5,67.7,73.5,70.5,67.7,100,94,75,29.95,29.77,12,0,15,0.22
2013-7-23,82.8,73.0,68.2,74.3,70.7,68.0,100,93,71,29.86,29.76,10,0,10,0.02
2013-7-24,82.4,73.6,68.1,74.0,70.3,67.0,100,90,65,29.85,29.75,9,0,9,0.00
2013-7-25,81.4,71.1,62.7,68.2,64.6,61.1,100,82,51,30.02,29.84,4,0,10,0.00
2013-7-26,83.0,70.1,57.3,72.3,64.7,57.0,100,85,58,30.04,29.94,10,0,10,0.00
2013-7-27,80.1,71.2,66.2,72.4,68.9,65.9,100,93,72,29.97,29.84,0,0,0,0.03
2013-7-28,79.9,70.0,60.2,69.1,65.1,59.1,100,86,54,30.03,29.85,11,0,12,0.00
2013-7-29,78.1,65.2,54.5,63.0,58.8,54.2,100,82,50,30.18,30.02,1,0,2,0.00
2013-7-30,77.7,66.1,54.9,68.7,62.1,54.9,100,88,57,30.21,30.11,0,0,0,0.00
2013-7-31,69.9,67.0,63.8,68.5,66.3,63.5,100,98,93,30.14,29.95,0,0,0,0.32
2013-8-1,82.2,72.0,65.3,72.4,68.5,65.0,100,90,59,29.95,29.88,14,0,17,0.04
2013-8-2,81.4,69.7,61.1,69.8,64.5,59.0,100,86,50,30.02,29.93,8,0,8,0.00
2013-8-3,82.2,71.3,62.4,72.1,67.7,62.0,100,89,68,30.05,29.90,9,0,9,0.00
2013-8-4,81.6,72.3,63.7,70.6,66.0,59.4,100,83,50,30.10,30.00,8,1,11,0.00
2013-8-5,82.2,69.5,59.3,68.0,63.1,57.0,100,83,45,30.12,30.00,8,0,10,0.00
2013-8-6,82.2,71.6,61.9,73.9,67.5,61.6,100,88,64,30.05,29.97,7,0,7,0.00
2013-8-7,80.1,74.0,69.9,76.0,71.3,69.6,100,92,80,30.05,29.98,0,0,0,0.01
2013-8-8,79.0,74.3,70.1,75.5,72.0,69.0,99,93,81,30.06,29.99,7,0,8,0.09
2013-8-9,85.3,75.8,68.1,76.1,72.3,67.5,100,90,70,30.09,29.99,13,0,13,0.01
2013-8-10,84.5,74.1,70.1,76.8,72.5,68.8,100,95,76,30.14,30.07,20,0,20,0.64
2013-8-11,82.6,73.9,69.4,75.5,71.9,68.8,100,94,73,30.19,30.07,10,0,13,0.01
2013-8-12,82.2,74.0,69.7,75.2,71.6,68.8,100,93,77,30.13,29.99,16,0,16,0.22
2013-8-13,77.5,71.9,66.4,74.6,70.5,64.9,100,96,84,30.00,29.89,12,0,12,0.75
2013-8-14,74.4,66.3,56.3,66.3,60.3,54.8,99,83,53,30.14,29.97,8,0,12,0.00
2013-8-15,77.9,64.7,56.1,66.5,59.4,53.7,100,84,62,30.16,30.06,9,0,9,0.00
2013-8-16,78.8,67.3,58.5,67.0,61.5,57.9,100,84,54,30.16,30.07,8,0,8,0.00
2013-8-17,72.8,66.5,58.8,66.2,61.9,58.5,100,86,67,30.21,30.13,10,1,10,0.03
2013-8-18,78.6,69.5,64.0,70.3,66.1,63.0,99,90,66,30.22,30.14,17,0,17,0.11
2013-8-19,80.9,70.9,66.1,72.0,68.2,65.5,100,92,66,30.20,30.08,7,0,7,0.07
2013-8-20,84.3,73.7,65.6,73.2,69.4,65.3,100,88,61,30.20,30.10,6,0,6,0.00
2013-8-21,79.7,71.9,66.2,73.6,69.8,65.9,100,93,74,30.25,30.15,6,0,6,0.03
2013-8-22,82.0,73.0,66.6,73.9,69.4,65.8,100,89,68,30.20,30.05,8,0,8,0.00
2013-8-23,81.6,74.1,65.9,73.7,69.8,64.4,100,87,70,30.12,30.03,10,0,10,0.01
2013-8-24,82.4,70.6,61.4,66.9,63.0,56.9,100,80,43,30.31,30.12,14,1,14,0.00
2013-8-25,79.9,66.3,54.9,63.6,58.8,53.8,100,80,43,30.42,30.30,8,0,8,0.00
2013-8-26,80.1,66.8,55.4,69.2,62.4,55.1,100,87,59,30.36,30.17,9,0,9,0.00
2013-8-27,81.0,70.7,62.1,73.8,67.5,61.8,100,90,69,30.19,30.06,8,0,8,0.00
2013-8-28,85.1,74.9,68.1,73.7,70.3,67.5,100,87,61,30.08,29.97,11,0,11,0.00
2013-8-29,86.8,76.3,69.7,74.8,71.3,68.0,99,86,60,30.02,29.94,9,0,10,0.00
2013-8-30,86.8,74.6,65.3,73.9,69.1,64.7,100,85,55,30.04,29.92,11,0,11,0.00
2013-8-31,85.5,72.6,68.4,76.1,70.8,67.0,100,95,66,29.98,29.88,19,0,19,0.74
2013-9-1,80.3,71.6,67.4,74.0,69.8,67.0,100,95,72,29.95,29.84,13,0,14,0.21
2013-9-2,80.5,73.5,68.1,73.4,70.5,67.5,100,91,76,29.97,29.85,11,0,11,0.00
2013-9-3,81.4,71.2,63.0,71.7,67.2,61.5,100,89,57,30.06,29.89,12,0,12,0.19
2013-9-4,79.7,67.0,57.1,66.7,61.7,56.5,100,85,52,30.17,30.06,3,0,7,0.00
2013-9-5,78.6,66.1,55.5,67.5,61.3,55.0,100,87,50,30.23,30.15,7,0,7,0.00
2013-9-6,80.1,67.6,56.7,67.6,62.5,56.7,100,86,54,30.24,30.10,0,0,0,0.00
2013-9-7,80.1,67.9,56.4,69.2,63.9,56.3,100,88,64,30.17,30.03,12,0,12,0.00
2013-9-8,80.9,69.7,61.0,72.1,66.6,61.0,100,91,62,30.05,29.99,1,0,1,0.00
2013-9-9,84.3,71.8,61.6,72.4,67.5,61.6,100,88,58,30.15,30.04,8,0,8,0.00
2013-9-10,85.7,73.6,64.8,72.8,68.8,64.6,100,87,55,30.26,30.14,1,0,1,0.00
2013-9-11,85.3,73.8,66.2,73.6,69.7,66.0,100,88,54,30.26,30.11,11,0,11,0.00
2013-9-12,81.4,71.0,65.4,74.0,69.0,65.0,100,94,74,30.11,29.92,27,0,27,0.52
2013-9-13,72.3,64.7,53.7,67.1,59.8,49.1,100,86,47,30.03,29.91,16,1,16,0.00
2013-9-14,70.2,57.6,46.8,56.4,51.4,46.5,100,83,46,30.16,30.04,12,1,12,0.00
2013-9-15,77.0,62.1,49.6,63.9,56.7,49.6,100,85,53,30.25,30.13,7,0,7,0.00
2013-9-16,74.0,64.1,55.5,66.3,60.6,54.9,100,89,70,30.24,30.15,0,0,0,0.00
2013-9-17,76.6,65.3,57.8,64.6,59.0,53.8,94,81,59,30.28,30.18,11,0,12,0.00
2013-9-18,64.8,61.3,57.0,62.2,58.7,54.0,100,91,78,30.28,30.21,6,0,6,0.09
2013-9-19,76.3,66.8,61.4,69.6,64.9,61.0,100,94,74,30.23,30.10,10,0,10,0.01
2013-9-20,78.8,67.9,60.2,69.9,65.0,60.0,100,92,65,30.12,29.93,12,0,12,0.00
2013-9-21,66.2,63.8,60.0,66.2,63.8,60.0,100,100,100,29.93,29.79,0,0,0,1.45
2013-9-22,70.2,59.4,51.2,60.2,56.2,51.2,100,90,59,30.01,29.86,12,0,13,0.01
2013-9-23,74.2,59.5,47.4,64.5,55.6,47.0,100,88,61,30.09,30.00,11,0,11,0.00
2013-9-24,75.1,63.7,54.3,63.7,58.8,54.0,100,86,57,30.13,29.94,10,0,12,0.00
2013-9-25,69.1,64.5,61.8,65.7,63.0,60.6,98,95,85,29.95,29.87,6,0,6,0.18
2013-9-26,73.7,64.0,55.8,63.6,60.2,55.6,100,89,55,30.10,29.92,11,0,11,0.00
2013-9-27,75.8,61.8,51.1,62.9,57.0,51.0,100,86,52,30.21,30.09,8,0,8,0.00
2013-9-28,73.3,60.7,50.3,61.7,56.3,50.0,100,87,55,30.29,30.16,7,0,7,0.00
2013-9-29,71.6,60.2,51.7,62.6,57.3,51.7,100,91,68,30.21,30.06,6,0,10,0.00
2013-9-30,73.0,62.3,55.5,62.5,58.7,55.0,100,90,55,30.14,30.02,10,0,10,0.00
2013-10-1,74.4,61.8,50.8,65.3,58.5,50.8,100,90,62,30.21,30.10,11,0,11,0.00
2013-10-2,77.7,63.0,52.9,66.5,59.5,52.9,100,90,57,30.25,30.11,4,0,6,0.00
2013-10-3,77.4,65.0,56.8,66.1,61.5,56.8,100,90,61,30.20,30.08,7,0,7,0.00
2013-10-4,79.4,66.2,55.8,67.3,61.9,55.8,100,88,57,30.23,30.11,10,0,10,0.00
2013-10-5,82.2,66.7,56.0,68.9,62.4,56.0,100,88,56,30.21,30.03,7,0,7,0.00
2013-10-6,82.2,69.0,56.1,67.3,62.1,56.1,100,81,53,30.05,29.84,13,0,13,0.03
2013-10-7,67.1,59.3,47.8,65.8,54.5,47.0,100,86,54,30.16,29.83,19,1,19,0.17
2013-10-8,70.1,57.9,43.9,52.2,48.6,44.0,100,74,48,30.24,30.15,14,2,18,0.00
2013-10-9,71.8,57.2,47.1,57.8,50.2,45.6,98,80,51,30.28,30.16,10,1,10,0.00
2013-10-10,72.5,56.0,41.7,58.9,50.1,41.0,100,83,50,30.23,30.10,12,0,12,0.00
2013-10-11,74.4,55.2,45.4,59.6,51.3,45.0,100,89,56,30.15,30.02,9,0,9,0.00
2013-10-12,73.6,63.4,52.5,64.1,59.3,52.0,100,87,64,30.14,30.03,8,0,8,0.00
2013-10-13,72.9,64.7,59.5,67.7,62.4,58.7,100,93,70,30.25,30.15,8,0,8,0.12
2013-10-14,76.2,65.2,57.2,63.3,60.4,57.0,100,86,57,30.28,30.14,11,1,11,0.00
2013-10-15,73.7,62.4,53.2,63.0,58.1,52.9,100,87,60,30.20,30.05,8,0,8,0.00
2013-10-16,68.0,62.9,59.2,61.0,59.6,57.0,98,90,75,30.09,30.00,8,0,8,0.00
2013-10-17,65.5,60.2,52.7,65.5,59.0,50.5,100,96,84,30.05,29.87,12,0,12,0.33
2013-10-18,62.8,50.7,40.7,51.1,46.9,40.7,100,88,58,30.14,30.03,7,0,7,0.00
2013-10-19,62.0,52.2,43.2,53.1,49.0,42.7,100,90,67,30.09,29.94,14,0,14,0.00
2013-10-20,60.8,44.2,33.0,43.7,38.6,31.7,100,84,38,30.19,30.09,8,0,8,0.00
2013-10-21,66.0,47.6,33.7,49.2,41.8,33.7,100,84,48,30.22,30.05,13,0,13,0.00
2013-10-22,62.2,52.3,43.2,52.5,48.6,42.0,100,88,67,30.06,29.89,10,0,10,0.00
2013-10-23,53.1,45.0,31.5,49.1,40.2,30.2,99,84,62,30.17,29.83,21,1,21,0.00
2013-10-24,52.1,39.4,29.1,39.2,34.5,-99.9,99,85,56,30.32,30.17,16,-3,16,0.02
2013-10-25,47.3,36.1,28.1,33.9,29.3,25.6,96,78,44,30.52,30.32,16,0,16,0.00
2013-10-26,54.0,39.1,22.6,38.5,29.1,21.0,97,71,39,30.46,30.16,16,1,16,0.00
2013-10-27,64.4,53.2,43.9,50.2,43.2,34.4,87,70,52,30.19,30.09,14,1,14,0.00
2013-10-28,64.6,55.8,50.0,56.8,52.6,48.0,100,89,69,30.32,30.16,8,0,8,0.04
2013-10-29,67.7,57.5,51.8,55.6,53.0,49.3,99,86,56,30.39,30.28,10,0,10,0.00
2013-10-30,74.5,59.6,52.4,60.3,55.4,51.3,100,88,55,30.32,30.16,7,0,12,0.02
2013-10-31,69.4,60.3,50.9,60.8,55.3,50.0,100,85,60,30.19,29.70,26,1,26,0.00
2013-11-1,69.9,61.4,45.6,63.1,55.2,44.3,100,82,53,29.84,29.68,18,1,18,0.23
2013-11-2,60.0,47.6,38.7,48.9,40.3,36.4,100,79,44,30.12,29.83,24,1,24,0.00
2013-11-3,54.6,41.8,32.5,42.0,35.9,32.0,100,82,50,30.42,30.12,8,0,10,0.00
2013-11-4,60.6,44.4,31.1,38.5,35.0,29.4,96,73,37,30.53,30.41,13,1,13,0.00
2013-11-5,62.0,47.1,35.9,41.0,35.7,31.1,90,68,33,30.55,30.41,11,1,11,0.00
2013-11-6,72.6,53.6,34.8,54.4,46.1,32.2,94,78,51,30.42,30.09,24,1,24,0.00
2013-11-7,56.8,48.8,32.5,56.3,43.9,30.4,100,84,54,30.34,30.05,17,1,17,0.23
2013-11-8,51.6,36.7,25.7,33.3,27.4,19.2,96,74,28,30.46,30.34,7,0,12,0.00
2013-11-9,54.9,36.0,25.6,36.2,30.0,24.0,96,81,42,30.43,30.31,16,0,16,0.00
2013-11-10,62.2,42.3,28.7,42.7,32.5,26.9,98,73,31,30.40,30.27,17,1,17,0.00
2013-11-11,61.2,40.1,25.2,35.6,27.9,19.4,93,68,23,30.43,30.22,12,0,12,0.00
2013-11-12,49.4,37.7,23.6,40.8,29.1,15.2,85,71,56,30.67,30.17,18,1,18,0.00
2013-11-13,41.0,27.1,16.8,23.2,18.5,14.4,92,73,39,30.75,30.58,10,0,10,0.00
2013-11-14,52.0,30.3,17.5,27.3,20.9,15.4,93,73,27,30.61,30.39,10,0,10,0.00
2013-11-15,49.9,35.9,23.1,45.0,32.0,20.0,100,87,45,30.42,30.25,4,0,6,0.10
2013-11-16,65.3,50.1,42.6,54.3,47.8,42.0,100,93,65,30.28,30.14,7,0,7,0.00
2013-11-17,66.8,54.2,42.6,61.3,52.7,42.4,100,95,70,30.17,29.85,13,0,13,0.33
2013-11-18,62.2,52.4,36.1,62.2,43.5,31.0,100,75,35,30.20,29.85,18,1,18,0.14
2013-11-19,49.3,38.1,27.7,34.5,29.5,25.6,92,73,42,30.33,30.20,11,1,11,0.00
2013-11-20,54.8,40.7,29.9,33.7,29.4,26.8,91,67,36,30.42,30.27,13,2,13,0.00
2013-11-21,60.4,43.8,33.3,50.7,38.8,29.3,96,83,57,30.44,30.27,12,1,12,0.00
2013-11-22,53.7,50.0,43.1,53.7,49.7,42.8,100,99,96,30.31,30.18,11,0,11,0.12
2013-11-23,52.1,44.1,30.1,52.1,37.7,17.3,100,79,50,30.42,30.19,17,2,17,0.00
2013-11-24,32.9,25.6,19.8,17.7,10.9,0.3,81,55,27,30.64,30.42,14,1,14,0.00
2013-11-25,36.4,28.5,20.8,29.5,16.2,7.4,86,61,41,30.56,30.25,7,0,8,0.00
2013-11-26,45.7,38.8,33.5,45.7,38.3,28.4,100,98,81,30.25,29.74,8,0,8,2.13
2013-11-27,38.0,30.2,26.1,37.0,25.7,17.0,98,84,64,30.33,29.79,22,1,22,0.17
2013-11-28,38.0,25.2,16.5,25.3,19.5,14.5,96,80,51,30.55,30.34,8,0,8,0.03
2013-11-29,45.6,28.9,17.9,30.5,23.2,16.0,96,82,45,30.66,30.55,8,0,8,0.00
2013-11-30,51.2,33.2,24.0,33.6,26.5,22.3,95,79,44,30.59,30.35,10,0,10,0.00
2013-12-1,52.7,35.8,21.3,38.1,30.2,19.9,96,82,52,30.35,30.03,10,0,10,0.01
2013-12-2,48.0,43.2,40.1,43.0,40.3,37.0,97,90,79,30.03,29.84,2,0,0,0.02
2013-12-3,59.0,46.8,39.3,49.0,43.8,37.5,99,90,68,30.03,29.83,5,0,5,0.02
2013-12-4,67.6,50.8,39.0,55.3,47.6,38.5,100,90,60,30.01,29.88,6,0,6,0.00
2013-12-5,68.4,57.7,46.0,62.3,54.7,45.9,100,91,69,30.04,29.91,7,0,11,0.08
2013-12-6,59.6,51.5,40.4,59.6,51.2,40.0,100,99,93,30.18,29.89,18,1,22,1.06
2013-12-7,40.7,37.1,33.2,40.7,34.1,29.5,100,89,80,30.47,30.18,12,1,12,0.00
2013-12-8,42.7,39.4,33.9,42.3,38.3,30.4,100,96,87,30.40,30.09,12,1,12,0.73
2013-12-9,47.5,41.6,36.7,47.5,40.2,-99.9,100,99,99,30.16,30.04,6,0,6,0.48
2013-12-10,41.0,35.1,23.3,41.0,32.5,22.1,100,91,65,30.41,30.00,17,1,17,0.31
2013-12-11,42.8,28.2,17.9,29.0,23.2,16.5,97,84,45,30.52,30.36,7,0,7,0.00
2013-12-12,35.9,25.1,20.1,23.9,19.7,11.0,95,81,43,30.56,30.44,10,-19,12,0.00
2013-12-13,44.0,28.4,17.2,29.1,21.3,15.0,93,77,34,30.46,30.21,10,-263,10,0.00
2013-12-14,45.2,40.8,36.4,43.6,36.6,21.8,100,87,47,30.20,29.79,13,1,13,0.47
2013-12-15,43.5,35.3,31.0,43.5,31.6,26.0,100,87,78,30.20,29.80,14,1,14,0.02
2013-12-16,45.2,33.1,28.5,36.3,29.2,26.0,97,86,63,30.27,30.11,11,1,11,0.00
2013-12-17,52.7,38.6,26.7,39.5,30.5,18.9,100,75,49,30.23,29.98,21,2,24,0.02
2013-12-18,43.3,31.7,21.9,25.8,22.8,18.0,92,72,38,30.36,30.22,13,1,13,0.00
2013-12-19,53.4,31.5,20.3,35.2,25.1,19.0,95,80,33,30.37,30.19,6,0,6,0.00
2013-12-20,53.4,40.3,27.6,43.5,33.6,25.9,95,79,42,30.24,30.08,5,0,6,0.00
2013-12-21,71.7,58.6,41.1,61.8,51.5,39.6,96,78,60,30.08,29.78,19,1,19,0.00
2013-12-22,70.5,56.8,52.3,60.1,55.6,52.0,100,96,69,30.05,29.78,30,1,30,1.44
2013-12-23,54.0,47.5,33.2,54.0,46.0,28.6,100,94,81,30.35,30.01,18,1,18,0.23
2013-12-24,33.6,28.7,18.4,29.0,21.6,14.9,90,75,52,30.53,30.34,18,1,18,0.00
2013-12-25,40.5,25.8,15.6,25.3,18.3,12.7,92,75,46,30.46,30.29,11,0,11,0.00
2013-12-26,45.2,29.4,21.9,30.3,23.6,19.0,95,81,43,30.37,30.27,7,0,10,0.00
2013-12-27,47.5,28.1,19.3,28.3,21.5,16.6,91,79,36,30.46,30.33,6,0,6,0.00
2013-12-28,41.5,31.1,19.9,37.3,27.0,18.2,97,86,55,30.40,30.01,6,0,6,0.35
2013-12-29,44.6,41.6,36.3,44.1,41.3,35.8,100,99,94,30.00,29.76,14,1,14,1.10
2013-12-30,39.5,36.9,33.3,39.5,34.2,22.8,100,90,76,30.18,29.96,12,0,12,0.00
2013-12-31,40.0,30.0,22.6,31.5,25.0,20.7,97,83,55,30.38,30.16,12,1,12,0.00
2014-1-1,45.0,28.3,19.3,29.6,23.4,17.9,98,84,48,30.33,30.07,7,0,11,0.00
2014-1-2,36.5,29.9,18.1,36.2,28.1,9.8,99,93,70,30.07,29.70,25,1,25,0.33